sensor_id;sensor_type;location;lat;lon;timestamp;temperature;humidity
17405;DHT22;8820;54.604;18.226;2023-01-29T00:01:08;3.50;99.90
17405;DHT22;8820;54.604;18.226;2023-01-29T00:03:44;3.50;99.90
17405;DHT22;8820;54.604;18.226;2023-01-29T00:06:13;3.50;99.90
17405;DHT22;8820;54.604;18.226;2023-01-29T00:08:42;3.60;99.90
17405;DHT22;8820;54.604;18.226;2023-01-29T00:11:25;3.60;99.90
17405;DHT22;8820;54.604;18.226;2023-01-29T00:13:54;3.60;99.90
17405;DHT22;8820;54.604;18.226;2023-01-29T00:16:45;3.70;99.90
17405;DHT22;8820;54.604;18.226;2023-01-29T00:19:23;3.60;99.90
17405;DHT22;8820;54.604;18.226;2023-01-29T00:21:59;3.60;99.90
17405;DHT22;8820;54.604;18.226;2023-01-29T00:24:28;3.60;99.90
17405;DHT22;8820;54.604;18.226;2023-01-29T00:27:08;3.60;99.90
17405;DHT22;8820;54.604;18.226;2023-01-29T00:29:41;3.60;99.90
17405;DHT22;8820;54.604;18.226;2023-01-29T00:32:16;3.50;99.90
17405;DHT22;8820;54.604;18.226;2023-01-29T00:34:46;3.50;99.90
17405;DHT22;8820;54.604;18.226;2023-01-29T00:37:22;3.50;99.90
17405;DHT22;8820;54.604;18.226;2023-01-29T00:39:54;3.50;99.90
17405;DHT22;8820;54.604;18.226;2023-01-29T00:42:23;3.50;99.90
17405;DHT22;8820;54.604;18.226;2023-01-29T00:45:22;3.50;99.90
17405;DHT22;8820;54.604;18.226;2023-01-29T00:47:52;3.50;99.90
17405;DHT22;8820;54.604;18.226;2023-01-29T00:50:24;3.50;99.90
17405;DHT22;8820;54.604;18.226;2023-01-29T00:52:53;3.50;99.90
17405;DHT22;8820;54.604;18.226;2023-01-29T00:55:34;3.40;99.90
17405;DHT22;8820;54.604;18.226;2023-01-29T00:58:04;3.40;99.90
17405;DHT22;8820;54.604;18.226;2023-01-29T01:00:50;3.50;99.90
17405;DHT22;8820;54.604;18.226;2023-01-29T01:03:24;3.40;99.90
17405;DHT22;8820;54.604;18.226;2023-01-29T01:06:04;3.30;99.90
17405;DHT22;8820;54.604;18.226;2023-01-29T01:08:33;3.30;99.90
17405;DHT22;8820;54.604;18.226;2023-01-29T01:11:28;3.30;99.90
17405;DHT22;8820;54.604;18.226;2023-01-29T01:13:58;3.20;99.90
17405;DHT22;8820;54.604;18.226;2023-01-29T01:16:28;3.20;99.90
17405;DHT22;8820;54.604;18.226;2023-01-29T01:19:37;3.20;99.90
17405;DHT22;8820;54.604;18.226;2023-01-29T01:22:15;3.20;99.90
17405;DHT22;8820;54.604;18.226;2023-01-29T01:25:03;3.20;99.90
17405;DHT22;8820;54.604;18.226;2023-01-29T01:27:32;3.10;99.90
17405;DHT22;8820;54.604;18.226;2023-01-29T01:30:25;3.10;99.90
17405;DHT22;8820;54.604;18.226;2023-01-29T01:32:54;3.10;99.90
17405;DHT22;8820;54.604;18.226;2023-01-29T01:35:25;3.10;99.90
17405;DHT22;8820;54.604;18.226;2023-01-29T01:37:54;3.10;99.90
17405;DHT22;8820;54.604;18.226;2023-01-29T01:40:43;3.10;99.90
17405;DHT22;8820;54.604;18.226;2023-01-29T01:43:15;3.10;99.90
17405;DHT22;8820;54.604;18.226;2023-01-29T01:45:48;3.20;99.90
17405;DHT22;8820;54.604;18.226;2023-01-29T01:48:20;3.10;99.90
17405;DHT22;8820;54.604;18.226;2023-01-29T01:51:19;3.10;99.90
17405;DHT22;8820;54.604;18.226;2023-01-29T01:54:00;3.20;99.90
17405;DHT22;8820;54.604;18.226;2023-01-29T01:56:39;3.10;99.90
17405;DHT22;8820;54.604;18.226;2023-01-29T01:59:19;3.10;99.90
17405;DHT22;8820;54.604;18.226;2023-01-29T02:01:51;3.10;99.90
17405;DHT22;8820;54.604;18.226;2023-01-29T02:04:24;3.10;99.90
17405;DHT22;8820;54.604;18.226;2023-01-29T02:07:14;3.10;99.90
17405;DHT22;8820;54.604;18.226;2023-01-29T02:10:16;3.10;99.90
17405;DHT22;8820;54.604;18.226;2023-01-29T02:12:53;3.10;99.90
17405;DHT22;8820;54.604;18.226;2023-01-29T02:15:34;3.10;99.90
17405;DHT22;8820;54.604;18.226;2023-01-29T02:18:05;3.00;99.90
17405;DHT22;8820;54.604;18.226;2023-01-29T02:20:59;3.10;99.90
17405;DHT22;8820;54.604;18.226;2023-01-29T02:27:08;3.10;99.90
17405;DHT22;8820;54.604;18.226;2023-01-29T02:30:12;3.00;99.90
17405;DHT22;8820;54.604;18.226;2023-01-29T02:32:58;3.00;99.90
17405;DHT22;8820;54.604;18.226;2023-01-29T02:35:50;3.00;99.90
17405;DHT22;8820;54.604;18.226;2023-01-29T02:38:38;3.00;99.90
17405;DHT22;8820;54.604;18.226;2023-01-29T02:41:15;3.10;99.90
17405;DHT22;8820;54.604;18.226;2023-01-29T02:43:56;3.00;99.90
17405;DHT22;8820;54.604;18.226;2023-01-29T02:46:58;3.00;99.90
17405;DHT22;8820;54.604;18.226;2023-01-29T02:49:41;3.10;99.90
17405;DHT22;8820;54.604;18.226;2023-01-29T02:52:20;3.10;99.90
17405;DHT22;8820;54.604;18.226;2023-01-29T02:54:54;3.10;99.90
17405;DHT22;8820;54.604;18.226;2023-01-29T02:57:43;3.10;99.90
17405;DHT22;8820;54.604;18.226;2023-01-29T03:00:17;3.10;99.90
17405;DHT22;8820;54.604;18.226;2023-01-29T03:02:55;3.10;99.90
17405;DHT22;8820;54.604;18.226;2023-01-29T03:05:29;3.10;99.90
17405;DHT22;8820;54.604;18.226;2023-01-29T03:08:05;3.20;99.90
17405;DHT22;8820;54.604;18.226;2023-01-29T03:11:09;3.20;99.90
17405;DHT22;8820;54.604;18.226;2023-01-29T03:13:51;3.20;99.90
17405;DHT22;8820;54.604;18.226;2023-01-29T03:16:25;3.20;99.90
17405;DHT22;8820;54.604;18.226;2023-01-29T03:19:15;3.20;99.90
17405;DHT22;8820;54.604;18.226;2023-01-29T03:21:49;3.10;99.90
17405;DHT22;8820;54.604;18.226;2023-01-29T03:24:42;3.10;99.90
17405;DHT22;8820;54.604;18.226;2023-01-29T03:27:37;3.10;99.90
17405;DHT22;8820;54.604;18.226;2023-01-29T03:30:46;3.10;99.90
17405;DHT22;8820;54.604;18.226;2023-01-29T03:33:43;3.10;99.90
17405;DHT22;8820;54.604;18.226;2023-01-29T03:36:18;3.20;99.90
17405;DHT22;8820;54.604;18.226;2023-01-29T03:39:28;3.20;99.90
17405;DHT22;8820;54.604;18.226;2023-01-29T03:42:04;3.10;99.90
17405;DHT22;8820;54.604;18.226;2023-01-29T03:44:44;3.20;99.90
17405;DHT22;8820;54.604;18.226;2023-01-29T03:47:59;3.20;99.90
17405;DHT22;8820;54.604;18.226;2023-01-29T03:50:40;3.20;99.90
17405;DHT22;8820;54.604;18.226;2023-01-29T03:53:24;3.10;99.90
17405;DHT22;8820;54.604;18.226;2023-01-29T03:56:12;3.10;99.90
17405;DHT22;8820;54.604;18.226;2023-01-29T03:59:30;3.10;99.90
17405;DHT22;8820;54.604;18.226;2023-01-29T04:02:32;3.10;99.90
17405;DHT22;8820;54.604;18.226;2023-01-29T04:05:16;3.10;99.90
17405;DHT22;8820;54.604;18.226;2023-01-29T04:08:04;3.20;99.90
17405;DHT22;8820;54.604;18.226;2023-01-29T04:13:24;3.10;99.90
17405;DHT22;8820;54.604;18.226;2023-01-29T04:16:10;3.20;99.90
17405;DHT22;8820;54.604;18.226;2023-01-29T04:19:11;3.20;99.90
17405;DHT22;8820;54.604;18.226;2023-01-29T04:21:42;3.10;99.90
17405;DHT22;8820;54.604;18.226;2023-01-29T04:24:13;3.10;99.90
17405;DHT22;8820;54.604;18.226;2023-01-29T04:27:06;3.10;99.90
17405;DHT22;8820;54.604;18.226;2023-01-29T04:30:01;3.10;99.90
17405;DHT22;8820;54.604;18.226;2023-01-29T04:32:53;3.20;99.90
17405;DHT22;8820;54.604;18.226;2023-01-29T04:36:06;3.20;99.90
17405;DHT22;8820;54.604;18.226;2023-01-29T04:39:17;3.30;99.90
17405;DHT22;8820;54.604;18.226;2023-01-29T04:42:16;3.20;99.90
17405;DHT22;8820;54.604;18.226;2023-01-29T04:44:55;3.20;99.90
17405;DHT22;8820;54.604;18.226;2023-01-29T04:47:32;3.20;99.90
17405;DHT22;8820;54.604;18.226;2023-01-29T04:50:36;3.20;99.90
17405;DHT22;8820;54.604;18.226;2023-01-29T04:53:12;3.20;99.90
17405;DHT22;8820;54.604;18.226;2023-01-29T04:55:46;3.20;99.90
17405;DHT22;8820;54.604;18.226;2023-01-29T04:58:21;3.20;99.90
17405;DHT22;8820;54.604;18.226;2023-01-29T05:00:54;3.20;99.90
17405;DHT22;8820;54.604;18.226;2023-01-29T05:03:25;3.20;99.90
17405;DHT22;8820;54.604;18.226;2023-01-29T05:06:04;3.20;99.90
17405;DHT22;8820;54.604;18.226;2023-01-29T05:08:36;3.30;99.90
17405;DHT22;8820;54.604;18.226;2023-01-29T05:11:06;3.30;99.90
17405;DHT22;8820;54.604;18.226;2023-01-29T05:13:39;3.30;99.90
17405;DHT22;8820;54.604;18.226;2023-01-29T05:16:19;3.30;99.90
17405;DHT22;8820;54.604;18.226;2023-01-29T05:18:50;3.40;99.90
17405;DHT22;8820;54.604;18.226;2023-01-29T05:21:26;3.40;99.90
17405;DHT22;8820;54.604;18.226;2023-01-29T05:24:13;3.40;99.90
17405;DHT22;8820;54.604;18.226;2023-01-29T05:26:44;3.50;99.90
17405;DHT22;8820;54.604;18.226;2023-01-29T05:29:33;3.50;99.90
17405;DHT22;8820;54.604;18.226;2023-01-29T05:32:02;3.50;99.90
17405;DHT22;8820;54.604;18.226;2023-01-29T05:34:32;3.50;99.90
17405;DHT22;8820;54.604;18.226;2023-01-29T05:37:00;3.50;99.90
17405;DHT22;8820;54.604;18.226;2023-01-29T05:39:29;3.50;99.90
17405;DHT22;8820;54.604;18.226;2023-01-29T05:41:58;3.50;99.90
17405;DHT22;8820;54.604;18.226;2023-01-29T05:44:43;3.50;99.90
17405;DHT22;8820;54.604;18.226;2023-01-29T05:47:18;3.50;99.90
17405;DHT22;8820;54.604;18.226;2023-01-29T05:49:46;3.50;99.90
17405;DHT22;8820;54.604;18.226;2023-01-29T05:52:15;3.60;99.90
17405;DHT22;8820;54.604;18.226;2023-01-29T05:55:09;3.50;99.90
17405;DHT22;8820;54.604;18.226;2023-01-29T05:57:39;3.60;99.90
17405;DHT22;8820;54.604;18.226;2023-01-29T06:00:18;3.60;99.90
17405;DHT22;8820;54.604;18.226;2023-01-29T06:02:48;3.60;99.90
17405;DHT22;8820;54.604;18.226;2023-01-29T06:05:17;3.60;99.90
17405;DHT22;8820;54.604;18.226;2023-01-29T06:07:45;3.60;99.90
17405;DHT22;8820;54.604;18.226;2023-01-29T06:10:16;3.60;99.90
17405;DHT22;8820;54.604;18.226;2023-01-29T06:12:45;3.60;99.90
17405;DHT22;8820;54.604;18.226;2023-01-29T06:15:16;3.70;99.90
17405;DHT22;8820;54.604;18.226;2023-01-29T06:17:46;3.70;99.90
17405;DHT22;8820;54.604;18.226;2023-01-29T06:20:14;3.80;99.90
17405;DHT22;8820;54.604;18.226;2023-01-29T06:22:44;3.90;99.90
17405;DHT22;8820;54.604;18.226;2023-01-29T06:25:13;3.90;99.90
17405;DHT22;8820;54.604;18.226;2023-01-29T06:27:42;3.90;99.90
17405;DHT22;8820;54.604;18.226;2023-01-29T06:30:48;3.90;99.90
17405;DHT22;8820;54.604;18.226;2023-01-29T06:33:17;3.90;99.90
17405;DHT22;8820;54.604;18.226;2023-01-29T06:36:07;3.90;99.90
17405;DHT22;8820;54.604;18.226;2023-01-29T06:39:00;3.80;99.90
17405;DHT22;8820;54.604;18.226;2023-01-29T06:41:29;3.90;99.90
17405;DHT22;8820;54.604;18.226;2023-01-29T06:44:05;3.90;99.90
17405;DHT22;8820;54.604;18.226;2023-01-29T06:46:43;4.00;99.90
17405;DHT22;8820;54.604;18.226;2023-01-29T06:49:13;4.00;99.90
17405;DHT22;8820;54.604;18.226;2023-01-29T06:51:44;4.00;99.90
17405;DHT22;8820;54.604;18.226;2023-01-29T06:54:27;4.00;99.90
17405;DHT22;8820;54.604;18.226;2023-01-29T06:57:37;4.00;99.90
17405;DHT22;8820;54.604;18.226;2023-01-29T07:00:16;4.00;99.90
17405;DHT22;8820;54.604;18.226;2023-01-29T07:05:59;4.10;99.90
17405;DHT22;8820;54.604;18.226;2023-01-29T07:08:42;4.10;99.90
17405;DHT22;8820;54.604;18.226;2023-01-29T07:11:11;4.10;99.90
17405;DHT22;8820;54.604;18.226;2023-01-29T07:13:40;4.10;99.90
17405;DHT22;8820;54.604;18.226;2023-01-29T07:16:09;4.10;99.90
17405;DHT22;8820;54.604;18.226;2023-01-29T07:18:41;4.20;99.90
17405;DHT22;8820;54.604;18.226;2023-01-29T07:21:12;4.20;99.90
17405;DHT22;8820;54.604;18.226;2023-01-29T07:24:00;4.20;99.90
17405;DHT22;8820;54.604;18.226;2023-01-29T07:26:58;4.30;99.90
17405;DHT22;8820;54.604;18.226;2023-01-29T07:29:40;4.30;99.90
17405;DHT22;8820;54.604;18.226;2023-01-29T07:32:17;4.40;99.90
17405;DHT22;8820;54.604;18.226;2023-01-29T07:34:46;4.40;99.90
17405;DHT22;8820;54.604;18.226;2023-01-29T07:37:16;4.40;99.90
17405;DHT22;8820;54.604;18.226;2023-01-29T07:39:51;4.40;99.90
17405;DHT22;8820;54.604;18.226;2023-01-29T07:42:56;4.40;99.90
17405;DHT22;8820;54.604;18.226;2023-01-29T07:45:26;4.40;99.90
17405;DHT22;8820;54.604;18.226;2023-01-29T07:47:56;4.40;99.90
17405;DHT22;8820;54.604;18.226;2023-01-29T07:50:39;4.40;99.90
17405;DHT22;8820;54.604;18.226;2023-01-29T07:53:13;4.40;99.90
17405;DHT22;8820;54.604;18.226;2023-01-29T07:55:44;4.40;99.90
17405;DHT22;8820;54.604;18.226;2023-01-29T07:58:13;4.50;99.90
17405;DHT22;8820;54.604;18.226;2023-01-29T08:00:56;4.50;99.90
17405;DHT22;8820;54.604;18.226;2023-01-29T08:03:25;4.60;99.90
17405;DHT22;8820;54.604;18.226;2023-01-29T08:05:53;4.60;99.90
17405;DHT22;8820;54.604;18.226;2023-01-29T08:08:24;4.60;99.90
17405;DHT22;8820;54.604;18.226;2023-01-29T08:10:53;4.60;99.90
17405;DHT22;8820;54.604;18.226;2023-01-29T08:13:22;4.60;99.90
17405;DHT22;8820;54.604;18.226;2023-01-29T08:15:50;4.60;99.90
17405;DHT22;8820;54.604;18.226;2023-01-29T08:18:19;4.60;99.90
17405;DHT22;8820;54.604;18.226;2023-01-29T08:20:48;4.70;99.90
17405;DHT22;8820;54.604;18.226;2023-01-29T08:23:30;4.70;99.90
17405;DHT22;8820;54.604;18.226;2023-01-29T08:26:00;4.80;99.90
17405;DHT22;8820;54.604;18.226;2023-01-29T08:28:29;4.80;99.90
17405;DHT22;8820;54.604;18.226;2023-01-29T08:30:58;4.80;99.90
17405;DHT22;8820;54.604;18.226;2023-01-29T08:33:28;4.80;99.90
17405;DHT22;8820;54.604;18.226;2023-01-29T08:36:06;4.80;99.90
17405;DHT22;8820;54.604;18.226;2023-01-29T08:38:36;4.80;99.90
17405;DHT22;8820;54.604;18.226;2023-01-29T08:41:06;4.80;99.90
17405;DHT22;8820;54.604;18.226;2023-01-29T08:43:36;4.80;99.90
17405;DHT22;8820;54.604;18.226;2023-01-29T08:46:08;4.80;99.90
17405;DHT22;8820;54.604;18.226;2023-01-29T08:48:37;4.90;99.90
17405;DHT22;8820;54.604;18.226;2023-01-29T08:51:08;4.80;99.90
17405;DHT22;8820;54.604;18.226;2023-01-29T08:53:39;4.80;99.90
17405;DHT22;8820;54.604;18.226;2023-01-29T08:56:08;4.80;99.90
17405;DHT22;8820;54.604;18.226;2023-01-29T08:58:36;4.80;99.90
17405;DHT22;8820;54.604;18.226;2023-01-29T09:04:21;4.90;99.90
17405;DHT22;8820;54.604;18.226;2023-01-29T09:08:09;5.00;99.90
17405;DHT22;8820;54.604;18.226;2023-01-29T09:10:59;5.00;99.90
17405;DHT22;8820;54.604;18.226;2023-01-29T09:13:33;5.00;99.90
17405;DHT22;8820;54.604;18.226;2023-01-29T09:16:03;5.10;99.90
17405;DHT22;8820;54.604;18.226;2023-01-29T09:18:32;5.10;99.90
17405;DHT22;8820;54.604;18.226;2023-01-29T09:21:03;5.10;99.90
17405;DHT22;8820;54.604;18.226;2023-01-29T09:23:33;5.10;99.90
17405;DHT22;8820;54.604;18.226;2023-01-29T09:26:03;5.10;99.90
17405;DHT22;8820;54.604;18.226;2023-01-29T09:28:34;5.10;99.90
17405;DHT22;8820;54.604;18.226;2023-01-29T09:31:03;5.10;99.90
17405;DHT22;8820;54.604;18.226;2023-01-29T09:33:32;5.10;99.90
17405;DHT22;8820;54.604;18.226;2023-01-29T09:36:02;5.10;99.90
17405;DHT22;8820;54.604;18.226;2023-01-29T09:38:31;5.10;99.90
17405;DHT22;8820;54.604;18.226;2023-01-29T09:41:08;5.10;99.90
17405;DHT22;8820;54.604;18.226;2023-01-29T09:43:46;5.10;99.90
17405;DHT22;8820;54.604;18.226;2023-01-29T09:46:20;5.10;99.90
17405;DHT22;8820;54.604;18.226;2023-01-29T09:48:57;5.10;99.90
17405;DHT22;8820;54.604;18.226;2023-01-29T09:51:31;5.10;99.90
17405;DHT22;8820;54.604;18.226;2023-01-29T09:54:12;5.00;99.90
17405;DHT22;8820;54.604;18.226;2023-01-29T09:56:44;5.00;99.90
17405;DHT22;8820;54.604;18.226;2023-01-29T09:59:22;5.00;99.90
17405;DHT22;8820;54.604;18.226;2023-01-29T10:01:58;5.00;99.90
17405;DHT22;8820;54.604;18.226;2023-01-29T10:10:45;5.00;99.90
17405;DHT22;8820;54.604;18.226;2023-01-29T10:13:26;5.00;99.90
17405;DHT22;8820;54.604;18.226;2023-01-29T10:16:06;5.00;99.90
17405;DHT22;8820;54.604;18.226;2023-01-29T10:18:48;5.00;99.90
17405;DHT22;8820;54.604;18.226;2023-01-29T10:21:33;5.00;99.90
17405;DHT22;8820;54.604;18.226;2023-01-29T10:24:20;5.10;99.90
17405;DHT22;8820;54.604;18.226;2023-01-29T10:26:54;5.10;99.90
17405;DHT22;8820;54.604;18.226;2023-01-29T10:29:26;5.10;99.90
17405;DHT22;8820;54.604;18.226;2023-01-29T10:32:00;5.20;99.90
17405;DHT22;8820;54.604;18.226;2023-01-29T10:34:35;5.20;99.90
17405;DHT22;8820;54.604;18.226;2023-01-29T10:37:14;5.30;99.90
17405;DHT22;8820;54.604;18.226;2023-01-29T10:39:45;5.30;99.90
17405;DHT22;8820;54.604;18.226;2023-01-29T10:42:21;5.30;99.90
17405;DHT22;8820;54.604;18.226;2023-01-29T10:45:04;5.20;99.90
17405;DHT22;8820;54.604;18.226;2023-01-29T10:47:48;5.20;99.90
17405;DHT22;8820;54.604;18.226;2023-01-29T10:50:39;5.20;99.90
17405;DHT22;8820;54.604;18.226;2023-01-29T10:53:24;5.20;99.90
17405;DHT22;8820;54.604;18.226;2023-01-29T10:56:02;5.20;99.90
17405;DHT22;8820;54.604;18.226;2023-01-29T10:58:49;5.20;99.90
17405;DHT22;8820;54.604;18.226;2023-01-29T11:01:21;5.30;99.90
17405;DHT22;8820;54.604;18.226;2023-01-29T11:03:57;5.30;99.90
17405;DHT22;8820;54.604;18.226;2023-01-29T11:06:29;5.30;99.90
17405;DHT22;8820;54.604;18.226;2023-01-29T11:09:04;5.20;99.90
17405;DHT22;8820;54.604;18.226;2023-01-29T11:11:40;5.20;99.90
17405;DHT22;8820;54.604;18.226;2023-01-29T11:14:14;5.20;99.90
17405;DHT22;8820;54.604;18.226;2023-01-29T11:16:46;5.20;99.90
17405;DHT22;8820;54.604;18.226;2023-01-29T11:19:16;5.20;99.90
17405;DHT22;8820;54.604;18.226;2023-01-29T11:21:54;5.20;99.90
17405;DHT22;8820;54.604;18.226;2023-01-29T11:24:24;5.20;99.90
17405;DHT22;8820;54.604;18.226;2023-01-29T11:26:56;5.20;99.90
17405;DHT22;8820;54.604;18.226;2023-01-29T11:29:40;5.20;99.90
17405;DHT22;8820;54.604;18.226;2023-01-29T11:32:14;5.30;99.90
17405;DHT22;8820;54.604;18.226;2023-01-29T11:35:02;5.30;99.90
17405;DHT22;8820;54.604;18.226;2023-01-29T11:37:34;5.30;99.90
17405;DHT22;8820;54.604;18.226;2023-01-29T11:40:32;5.30;99.90
17405;DHT22;8820;54.604;18.226;2023-01-29T11:43:20;5.30;99.90
17405;DHT22;8820;54.604;18.226;2023-01-29T11:45:51;5.30;99.90
17405;DHT22;8820;54.604;18.226;2023-01-29T11:48:29;5.30;99.90
17405;DHT22;8820;54.604;18.226;2023-01-29T11:51:00;5.30;99.90
17405;DHT22;8820;54.604;18.226;2023-01-29T11:53:37;5.40;99.90
17405;DHT22;8820;54.604;18.226;2023-01-29T11:56:21;5.40;99.90
17405;DHT22;8820;54.604;18.226;2023-01-29T11:58:52;5.40;99.90
17405;DHT22;8820;54.604;18.226;2023-01-29T12:01:30;5.40;99.90
17405;DHT22;8820;54.604;18.226;2023-01-29T12:04:02;5.30;99.90
17405;DHT22;8820;54.604;18.226;2023-01-29T12:06:33;5.30;99.90
17405;DHT22;8820;54.604;18.226;2023-01-29T12:09:09;5.30;99.90
17405;DHT22;8820;54.604;18.226;2023-01-29T12:11:41;5.30;99.90
17405;DHT22;8820;54.604;18.226;2023-01-29T12:14:25;5.40;99.90
17405;DHT22;8820;54.604;18.226;2023-01-29T12:17:00;5.30;99.90
17405;DHT22;8820;54.604;18.226;2023-01-29T12:19:37;5.30;99.90
17405;DHT22;8820;54.604;18.226;2023-01-29T12:22:13;5.20;99.90
17405;DHT22;8820;54.604;18.226;2023-01-29T12:24:49;5.30;99.90
17405;DHT22;8820;54.604;18.226;2023-01-29T12:27:26;5.30;99.90
17405;DHT22;8820;54.604;18.226;2023-01-29T12:30:04;5.30;99.90
17405;DHT22;8820;54.604;18.226;2023-01-29T12:32:42;5.30;99.90
17405;DHT22;8820;54.604;18.226;2023-01-29T12:35:20;5.40;99.90
17405;DHT22;8820;54.604;18.226;2023-01-29T12:37:54;5.40;99.90
17405;DHT22;8820;54.604;18.226;2023-01-29T12:40:28;5.50;99.90
17405;DHT22;8820;54.604;18.226;2023-01-29T12:43:04;5.50;99.90
17405;DHT22;8820;54.604;18.226;2023-01-29T12:45:38;5.50;99.90
17405;DHT22;8820;54.604;18.226;2023-01-29T12:48:09;5.50;99.90
17405;DHT22;8820;54.604;18.226;2023-01-29T12:50:41;5.50;99.90
17405;DHT22;8820;54.604;18.226;2023-01-29T12:53:19;5.40;99.90
17405;DHT22;8820;54.604;18.226;2023-01-29T12:55:53;5.40;99.90
17405;DHT22;8820;54.604;18.226;2023-01-29T12:58:30;5.40;99.90
17405;DHT22;8820;54.604;18.226;2023-01-29T13:01:03;5.40;99.90
17405;DHT22;8820;54.604;18.226;2023-01-29T13:03:45;5.40;99.90
17405;DHT22;8820;54.604;18.226;2023-01-29T13:06:21;5.40;99.90
17405;DHT22;8820;54.604;18.226;2023-01-29T13:08:56;5.40;99.90
17405;DHT22;8820;54.604;18.226;2023-01-29T13:11:28;5.40;99.90
17405;DHT22;8820;54.604;18.226;2023-01-29T13:14:00;5.40;99.90
17405;DHT22;8820;54.604;18.226;2023-01-29T13:16:36;5.40;99.90
17405;DHT22;8820;54.604;18.226;2023-01-29T13:19:17;5.40;99.90
17405;DHT22;8820;54.604;18.226;2023-01-29T13:21:50;5.40;99.90
17405;DHT22;8820;54.604;18.226;2023-01-29T13:24:23;5.40;99.90
17405;DHT22;8820;54.604;18.226;2023-01-29T13:26:53;5.50;99.90
17405;DHT22;8820;54.604;18.226;2023-01-29T13:29:23;5.50;99.90
17405;DHT22;8820;54.604;18.226;2023-01-29T13:31:53;5.50;99.90
17405;DHT22;8820;54.604;18.226;2023-01-29T13:34:24;5.50;99.90
17405;DHT22;8820;54.604;18.226;2023-01-29T13:36:58;5.50;99.90
17405;DHT22;8820;54.604;18.226;2023-01-29T13:39:29;5.50;99.90
17405;DHT22;8820;54.604;18.226;2023-01-29T13:42:01;5.40;99.90
17405;DHT22;8820;54.604;18.226;2023-01-29T13:44:33;5.50;99.90
17405;DHT22;8820;54.604;18.226;2023-01-29T13:47:05;5.60;99.90
17405;DHT22;8820;54.604;18.226;2023-01-29T13:49:38;5.60;99.90
17405;DHT22;8820;54.604;18.226;2023-01-29T13:52:23;5.60;99.90
17405;DHT22;8820;54.604;18.226;2023-01-29T13:54:56;5.60;99.90
17405;DHT22;8820;54.604;18.226;2023-01-29T13:57:49;5.60;99.90
17405;DHT22;8820;54.604;18.226;2023-01-29T14:00:54;5.50;99.90
17405;DHT22;8820;54.604;18.226;2023-01-29T14:03:52;5.50;99.90
17405;DHT22;8820;54.604;18.226;2023-01-29T14:06:49;5.50;99.90
17405;DHT22;8820;54.604;18.226;2023-01-29T14:12:38;5.60;99.90
17405;DHT22;8820;54.604;18.226;2023-01-29T14:15:31;5.60;99.90
17405;DHT22;8820;54.604;18.226;2023-01-29T14:18:15;5.60;99.90
17405;DHT22;8820;54.604;18.226;2023-01-29T14:20:56;5.60;99.90
17405;DHT22;8820;54.604;18.226;2023-01-29T14:23:38;5.60;99.90
17405;DHT22;8820;54.604;18.226;2023-01-29T14:26:31;5.60;99.90
17405;DHT22;8820;54.604;18.226;2023-01-29T14:29:05;5.50;99.90
17405;DHT22;8820;54.604;18.226;2023-01-29T14:31:42;5.60;99.90
17405;DHT22;8820;54.604;18.226;2023-01-29T14:34:22;5.60;99.90
17405;DHT22;8820;54.604;18.226;2023-01-29T14:36:54;5.60;99.90
17405;DHT22;8820;54.604;18.226;2023-01-29T14:39:36;5.50;99.90
17405;DHT22;8820;54.604;18.226;2023-01-29T14:42:17;5.60;99.90
17405;DHT22;8820;54.604;18.226;2023-01-29T14:45:20;5.60;99.90
17405;DHT22;8820;54.604;18.226;2023-01-29T14:48:05;5.70;99.90
17405;DHT22;8820;54.604;18.226;2023-01-29T14:51:08;5.70;99.90
17405;DHT22;8820;54.604;18.226;2023-01-29T14:53:56;5.70;99.90
17405;DHT22;8820;54.604;18.226;2023-01-29T14:56:32;5.60;99.90
17405;DHT22;8820;54.604;18.226;2023-01-29T14:59:12;5.70;99.90
17405;DHT22;8820;54.604;18.226;2023-01-29T15:01:46;5.70;99.90
17405;DHT22;8820;54.604;18.226;2023-01-29T15:04:21;5.60;99.90
17405;DHT22;8820;54.604;18.226;2023-01-29T15:06:54;5.60;99.90
17405;DHT22;8820;54.604;18.226;2023-01-29T15:09:33;5.60;99.90
17405;DHT22;8820;54.604;18.226;2023-01-29T15:12:27;5.50;99.90
17405;DHT22;8820;54.604;18.226;2023-01-29T15:15:04;5.50;99.90
17405;DHT22;8820;54.604;18.226;2023-01-29T15:17:40;5.50;99.90
17405;DHT22;8820;54.604;18.226;2023-01-29T15:20:34;5.50;99.90
17405;DHT22;8820;54.604;18.226;2023-01-29T15:23:19;5.40;99.90
17405;DHT22;8820;54.604;18.226;2023-01-29T15:25:53;5.40;99.90
17405;DHT22;8820;54.604;18.226;2023-01-29T15:28:24;5.40;99.90
17405;DHT22;8820;54.604;18.226;2023-01-29T15:30:55;5.30;99.90
17405;DHT22;8820;54.604;18.226;2023-01-29T15:33:30;5.30;99.90
17405;DHT22;8820;54.604;18.226;2023-01-29T15:36:04;5.40;99.90
17405;DHT22;8820;54.604;18.226;2023-01-29T15:38:40;5.30;99.90
17405;DHT22;8820;54.604;18.226;2023-01-29T15:41:16;5.30;99.90
17405;DHT22;8820;54.604;18.226;2023-01-29T15:43:48;5.20;99.90
17405;DHT22;8820;54.604;18.226;2023-01-29T15:46:21;5.10;99.90
17405;DHT22;8820;54.604;18.226;2023-01-29T15:48:55;5.10;99.90
17405;DHT22;8820;54.604;18.226;2023-01-29T15:51:26;5.20;99.90
17405;DHT22;8820;54.604;18.226;2023-01-29T15:53:57;5.20;99.90
17405;DHT22;8820;54.604;18.226;2023-01-29T15:56:34;5.20;99.90
17405;DHT22;8820;54.604;18.226;2023-01-29T15:59:06;5.20;99.90
17405;DHT22;8820;54.604;18.226;2023-01-29T16:01:36;5.20;99.90
17405;DHT22;8820;54.604;18.226;2023-01-29T16:04:12;5.30;99.90
17405;DHT22;8820;54.604;18.226;2023-01-29T16:06:42;5.30;99.90
17405;DHT22;8820;54.604;18.226;2023-01-29T16:09:18;5.30;99.90
17405;DHT22;8820;54.604;18.226;2023-01-29T16:12:05;5.30;99.90
17405;DHT22;8820;54.604;18.226;2023-01-29T16:14:34;5.20;99.90
17405;DHT22;8820;54.604;18.226;2023-01-29T16:17:19;5.30;99.90
17405;DHT22;8820;54.604;18.226;2023-01-29T16:19:56;5.30;99.90
17405;DHT22;8820;54.604;18.226;2023-01-29T16:22:29;5.30;99.90
17405;DHT22;8820;54.604;18.226;2023-01-29T16:25:01;5.30;99.90
17405;DHT22;8820;54.604;18.226;2023-01-29T16:27:43;5.30;99.90
17405;DHT22;8820;54.604;18.226;2023-01-29T16:30:14;5.30;99.90
17405;DHT22;8820;54.604;18.226;2023-01-29T16:32:44;5.30;99.90
17405;DHT22;8820;54.604;18.226;2023-01-29T16:35:15;5.30;99.90
17405;DHT22;8820;54.604;18.226;2023-01-29T16:37:47;5.30;99.90
17405;DHT22;8820;54.604;18.226;2023-01-29T16:40:26;5.30;99.90
17405;DHT22;8820;54.604;18.226;2023-01-29T16:46:17;5.30;99.90
17405;DHT22;8820;54.604;18.226;2023-01-29T16:48:47;5.20;99.90
17405;DHT22;8820;54.604;18.226;2023-01-29T16:51:23;5.20;99.90
17405;DHT22;8820;54.604;18.226;2023-01-29T16:53:56;5.20;99.90
17405;DHT22;8820;54.604;18.226;2023-01-29T16:56:38;5.10;99.90
17405;DHT22;8820;54.604;18.226;2023-01-29T16:59:18;5.10;99.90
17405;DHT22;8820;54.604;18.226;2023-01-29T17:02:02;5.10;99.90
17405;DHT22;8820;54.604;18.226;2023-01-29T17:04:34;5.20;99.90
17405;DHT22;8820;54.604;18.226;2023-01-29T17:07:05;5.30;99.90
17405;DHT22;8820;54.604;18.226;2023-01-29T17:09:36;5.20;99.90
17405;DHT22;8820;54.604;18.226;2023-01-29T17:12:07;5.10;99.90
17405;DHT22;8820;54.604;18.226;2023-01-29T17:14:36;5.10;99.90
17405;DHT22;8820;54.604;18.226;2023-01-29T17:17:14;5.10;99.90
17405;DHT22;8820;54.604;18.226;2023-01-29T17:19:44;5.20;99.90